Time;durP1;ratioP1;P1;durP2;ratioP2;P2;SDS_P1;SDS_P2;PMS_P1;PMS_P2;Temp;Humidity;BMP_temperature;BMP_pressure;BME280_temperature;BME280_humidity;BME280_pressure;Samples;Min_cycle;Max_cycle;Signal;HPM_P1;HPM_P2
2023/07/05 00:00:23;;;;;;;10.15;5.05;;;;;;;;;;5087434;27;20036;-51
2023/07/05 00:02:53;;;;;;;10.43;5.32;;;;;;;;;;5087156;27;20036;-51
2023/07/05 00:05:19;;;;;;;13.98;5.75;;;;;;;;;;5087616;27;20079;-51
2023/07/05 00:07:45;;;;;;;12.82;5.70;;;;;;;;;;5090209;27;20040;-51
2023/07/05 00:10:11;;;;;;;13.35;5.43;;;;;;;;;;5089617;27;20037;-51
2023/07/05 00:12:37;;;;;;;10.27;5.80;;;;;;;;;;5090857;27;20037;-51
2023/07/05 00:15:04;;;;;;;12.88;5.93;;;;;;;;;;5089567;27;20044;-51
2023/07/05 00:17:32;;;;;;;11.88;5.93;;;;;;;;;;5089110;27;20041;-51
2023/07/05 00:19:58;;;;;;;13.45;6.03;;;;;;;;;;5089630;27;20507;-51
2023/07/05 00:22:26;;;;;;;13.40;5.63;;;;;;;;;;5090399;27;20123;-51
2023/07/05 00:24:56;;;;;;;12.40;5.97;;;;;;;;;;5089955;27;20094;-51
2023/07/05 00:27:25;;;;;;;12.38;5.78;;;;;;;;;;5090006;27;20948;-51
2023/07/05 00:29:54;;;;;;;11.48;5.05;;;;;;;;;;5089366;27;20037;-52
2023/07/05 00:32:21;;;;;;;12.90;5.88;;;;;;;;;;5089104;27;20044;-52
2023/07/05 00:34:47;;;;;;;10.85;5.28;;;;;;;;;;5090064;27;20164;-52
2023/07/05 00:37:13;;;;;;;8.95;4.50;;;;;;;;;;5089705;27;20040;-52
2023/07/05 00:39:39;;;;;;;10.48;5.47;;;;;;;;;;5090150;27;20125;-51
2023/07/05 00:42:05;;;;;;;12.35;5.00;;;;;;;;;;5090120;27;20035;-51
2023/07/05 00:44:31;;;;;;;10.73;5.50;;;;;;;;;;5089943;27;20051;-52
2023/07/05 00:47:01;;;;;;;9.65;5.47;;;;;;;;;;5088667;27;20040;-51
2023/07/05 00:49:28;;;;;;;7.68;4.60;;;;;;;;;;5089651;27;20049;-51
2023/07/05 00:51:57;;;;;;;10.30;5.30;;;;;;;;;;5090697;27;20063;-51
2023/07/05 00:54:27;;;;;;;9.63;4.65;;;;;;;;;;5089460;27;20052;-51
2023/07/05 00:56:57;;;;;;;10.98;5.00;;;;;;;;;;5093453;27;20043;-51
2023/07/05 00:59:25;;;;;;;9.77;4.78;;;;;;;;;;5077255;28;20051;-51
2023/07/05 01:01:51;;;;;;;10.90;5.57;;;;;;;;;;5089956;27;20112;-51
2023/07/05 01:04:18;;;;;;;9.25;3.92;;;;;;;;;;5089832;27;20041;-51
2023/07/05 01:06:47;;;;;;;9.88;4.05;;;;;;;;;;5089522;27;20109;-51
2023/07/05 01:09:13;;;;;;;11.25;5.22;;;;;;;;;;5089721;27;20040;-51
2023/07/05 01:11:42;;;;;;;9.77;3.53;;;;;;;;;;5078890;28;20462;-51
2023/07/05 01:14:14;;;;;;;9.35;4.68;;;;;;;;;;5089218;27;20530;-51
2023/07/05 01:16:43;;;;;;;9.63;4.45;;;;;;;;;;5089440;27;20083;-50
2023/07/05 01:19:19;;;;;;;8.88;4.47;;;;;;;;;;5089477;27;20568;-51
2023/07/05 01:21:58;;;;;;;8.38;4.30;;;;;;;;;;5088781;27;20040;-51
2023/07/05 01:24:30;;;;;;;10.85;4.28;;;;;;;;;;5086470;27;20125;-51
2023/07/05 01:27:22;;;;;;;10.38;4.13;;;;;;;;;;5087795;27;20040;-51
2023/07/05 01:30:03;;;;;;;9.55;3.58;;;;;;;;;;5088717;27;20044;-51
2023/07/05 01:32:39;;;;;;;11.18;4.00;;;;;;;;;;5088441;27;20040;-51
2023/07/05 01:35:10;;;;;;;16.55;4.18;;;;;;;;;;5088089;27;20650;-51
2023/07/05 01:37:38;;;;;;;7.28;4.10;;;;;;;;;;5087473;27;20095;-51
2023/07/05 01:40:23;;;;;;;8.80;3.70;;;;;;;;;;5092362;27;20138;-51
2023/07/05 01:42:51;;;;;;;10.20;3.65;;;;;;;;;;5089829;27;20582;-51
2023/07/05 01:45:20;;;;;;;12.80;5.10;;;;;;;;;;5089423;27;20487;-51
2023/07/05 01:47:54;;;;;;;6.95;3.28;;;;;;;;;;5088581;27;20040;-51
2023/07/05 01:50:24;;;;;;;6.13;3.42;;;;;;;;;;5087002;27;20557;-51
2023/07/05 01:52:51;;;;;;;11.48;3.65;;;;;;;;;;5092135;27;20115;-51
2023/07/05 01:55:30;;;;;;;7.47;4.00;;;;;;;;;;5088462;27;20118;-51
2023/07/05 01:58:00;;;;;;;8.85;3.63;;;;;;;;;;5089424;27;20040;-51
2023/07/05 02:00:27;;;;;;;9.30;4.15;;;;;;;;;;5088834;27;20501;-51
2023/07/05 02:03:01;;;;;;;11.82;4.80;;;;;;;;;;5088251;27;20033;-51
2023/07/05 02:05:28;;;;;;;8.07;5.05;;;;;;;;;;5088407;27;20519;-51
2023/07/05 02:07:54;;;;;;;10.35;4.18;;;;;;;;;;5089504;27;20214;-51
2023/07/05 02:10:21;;;;;;;8.13;3.33;;;;;;;;;;5088362;27;20040;-51
2023/07/05 02:12:48;;;;;;;9.23;4.25;;;;;;;;;;5087986;27;20620;-51
2023/07/05 02:15:14;;;;;;;11.65;4.25;;;;;;;;;;5088295;27;20044;-51
2023/07/05 02:17:40;;;;;;;10.32;3.90;;;;;;;;;;5088300;27;20039;-51
2023/07/05 02:20:07;;;;;;;13.50;4.05;;;;;;;;;;5089142;27;20139;-51
2023/07/05 02:22:33;;;;;;;8.45;3.80;;;;;;;;;;5087729;27;20071;-51
2023/07/05 02:24:59;;;;;;;15.90;5.70;;;;;;;;;;5089045;27;20126;-51
2023/07/05 02:27:27;;;;;;;8.25;4.57;;;;;;;;;;5085119;27;20044;-51
2023/07/05 02:29:53;;;;;;;15.57;5.57;;;;;;;;;;5086641;27;20036;-51
2023/07/05 02:32:20;;;;;;;8.18;4.43;;;;;;;;;;5092133;27;20048;-51
2023/07/05 02:34:47;;;;;;;13.73;4.97;;;;;;;;;;5088253;27;20127;-51
2023/07/05 02:37:14;;;;;;;18.38;5.25;;;;;;;;;;5086364;27;20046;-51
2023/07/05 02:39:40;;;;;;;16.77;5.22;;;;;;;;;;5088108;27;20528;-51
2023/07/05 02:42:06;;;;;;;13.40;5.03;;;;;;;;;;5088034;27;20040;-51
2023/07/05 02:44:32;;;;;;;8.95;4.22;;;;;;;;;;5086479;27;20171;-51
2023/07/05 02:46:59;;;;;;;11.80;4.28;;;;;;;;;;5090754;27;20040;-51
2023/07/05 02:49:25;;;;;;;17.73;5.10;;;;;;;;;;5086182;27;22038;-51
2023/07/05 02:51:51;;;;;;;14.80;3.83;;;;;;;;;;5086472;27;20115;-51
2023/07/05 02:54:17;;;;;;;14.38;4.47;;;;;;;;;;5083805;27;20411;-51
2023/07/05 02:56:43;;;;;;;10.57;3.90;;;;;;;;;;5086631;27;20186;-51
2023/07/05 02:59:09;;;;;;;20.30;5.22;;;;;;;;;;5087941;27;20060;-51
2023/07/05 03:01:35;;;;;;;10.20;6.07;;;;;;;;;;5087877;27;20708;-51
2023/07/05 03:04:02;;;;;;;13.60;4.28;;;;;;;;;;5086985;27;20539;-51
2023/07/05 03:06:28;;;;;;;16.05;4.05;;;;;;;;;;5087156;27;20097;-51
2023/07/05 03:08:54;;;;;;;12.77;4.93;;;;;;;;;;5087453;27;20047;-51
2023/07/05 03:11:20;;;;;;;8.73;3.30;;;;;;;;;;5085965;27;20247;-51
2023/07/05 03:13:46;;;;;;;10.98;4.72;;;;;;;;;;5086893;27;20036;-51
2023/07/05 03:16:12;;;;;;;7.35;3.53;;;;;;;;;;5088560;27;20145;-51
2023/07/05 03:18:38;;;;;;;11.15;4.78;;;;;;;;;;5087418;27;20619;-51
2023/07/05 03:21:05;;;;;;;13.00;4.63;;;;;;;;;;5086731;27;20051;-51
2023/07/05 03:23:31;;;;;;;15.32;4.57;;;;;;;;;;5087955;27;20040;-51
2023/07/05 03:26:02;;;;;;;8.25;3.65;;;;;;;;;;5086219;27;20131;-51
2023/07/05 03:28:29;;;;;;;6.75;3.00;;;;;;;;;;5086505;27;20093;-51
2023/07/05 03:31:05;;;;;;;13.98;4.30;;;;;;;;;;5085755;27;20048;-51
2023/07/05 03:33:32;;;;;;;10.73;4.13;;;;;;;;;;5088408;27;20041;-51
2023/07/05 03:35:58;;;;;;;10.70;4.65;;;;;;;;;;5085975;27;20055;-51
2023/07/05 03:38:25;;;;;;;7.95;4.22;;;;;;;;;;5088050;27;20050;-51
2023/07/05 03:40:58;;;;;;;11.75;3.90;;;;;;;;;;5094218;27;20040;-51
2023/07/05 03:43:25;;;;;;;9.90;3.92;;;;;;;;;;5090805;27;20364;-51
2023/07/05 03:45:51;;;;;;;11.73;3.92;;;;;;;;;;5091186;27;20090;-51
2023/07/05 03:48:17;;;;;;;9.80;3.75;;;;;;;;;;5089761;27;20088;-51
2023/07/05 03:50:43;;;;;;;13.13;4.38;;;;;;;;;;5088998;27;21034;-51
2023/07/05 03:53:10;;;;;;;8.68;3.53;;;;;;;;;;5088583;27;20114;-51
2023/07/05 03:55:36;;;;;;;10.40;4.95;;;;;;;;;;5095425;27;20044;-51
2023/07/05 03:58:02;;;;;;;10.60;6.20;;;;;;;;;;5089878;27;20040;-51
2023/07/05 04:00:29;;;;;;;14.60;4.68;;;;;;;;;;5091315;27;20899;-51
2023/07/05 04:02:55;;;;;;;9.80;4.43;;;;;;;;;;5090506;27;20350;-51
2023/07/05 04:05:21;;;;;;;14.18;4.13;;;;;;;;;;5089160;27;20059;-51
2023/07/05 04:07:47;;;;;;;10.43;4.20;;;;;;;;;;5090720;27;20037;-51
2023/07/05 04:10:13;;;;;;;18.98;4.82;;;;;;;;;;5090002;27;20077;-51
2023/07/05 04:12:39;;;;;;;12.93;3.78;;;;;;;;;;5089737;27;20087;-50
2023/07/05 04:15:06;;;;;;;12.82;3.65;;;;;;;;;;5090659;27;20518;-51
2023/07/05 04:17:32;;;;;;;13.70;3.97;;;;;;;;;;5078992;27;20044;-51
2023/07/05 04:19:58;;;;;;;13.52;3.83;;;;;;;;;;5089737;27;20087;-51
2023/07/05 04:22:24;;;;;;;14.15;4.22;;;;;;;;;;5078758;27;20048;-50
2023/07/05 04:24:50;;;;;;;12.57;3.70;;;;;;;;;;5090079;27;20081;-51
2023/07/05 04:27:16;;;;;;;12.95;4.07;;;;;;;;;;5090216;27;20044;-51
2023/07/05 04:29:42;;;;;;;15.60;4.45;;;;;;;;;;5090577;27;20048;-51
2023/07/05 04:32:09;;;;;;;13.40;4.55;;;;;;;;;;5090153;27;20048;-51
2023/07/05 04:34:35;;;;;;;10.20;3.85;;;;;;;;;;5090031;27;20040;-50
2023/07/05 04:37:01;;;;;;;13.90;5.45;;;;;;;;;;5090838;27;20142;-51
2023/07/05 04:39:27;;;;;;;8.45;3.90;;;;;;;;;;5089574;27;20047;-50
2023/07/05 04:41:53;;;;;;;23.10;5.10;;;;;;;;;;5090305;27;20044;-51
2023/07/05 04:44:19;;;;;;;19.02;5.75;;;;;;;;;;5091048;27;20048;-51
2023/07/05 04:46:45;;;;;;;6.53;3.42;;;;;;;;;;5088076;27;20070;-51
2023/07/05 04:49:11;;;;;;;12.88;4.20;;;;;;;;;;5089004;27;20047;-51
2023/07/05 04:51:37;;;;;;;18.92;4.63;;;;;;;;;;5089409;27;20040;-51
2023/07/05 04:54:03;;;;;;;14.55;4.68;;;;;;;;;;5090482;27;20044;-51
2023/07/05 04:56:29;;;;;;;12.73;3.33;;;;;;;;;;5088949;27;20040;-51
2023/07/05 04:58:56;;;;;;;15.73;5.57;;;;;;;;;;5088304;27;20048;-51
2023/07/05 05:01:22;;;;;;;9.52;3.15;;;;;;;;;;5087917;27;20514;-51
2023/07/05 05:03:49;;;;;;;17.35;6.00;;;;;;;;;;5089502;27;20099;-51
2023/07/05 05:06:15;;;;;;;9.05;3.78;;;;;;;;;;5089695;27;20559;-51
2023/07/05 05:08:41;;;;;;;20.38;5.85;;;;;;;;;;5087399;27;20055;-51
2023/07/05 05:11:07;;;;;;;13.65;3.60;;;;;;;;;;5088344;27;20634;-50
2023/07/05 05:13:34;;;;;;;11.27;3.47;;;;;;;;;;5088253;27;20036;-51
2023/07/05 05:16:00;;;;;;;11.57;3.97;;;;;;;;;;5088633;27;20066;-51
2023/07/05 05:18:28;;;;;;;11.23;4.47;;;;;;;;;;5089138;27;20542;-51
2023/07/05 05:20:54;;;;;;;13.48;3.08;;;;;;;;;;5090735;27;20067;-51
2023/07/05 05:23:20;;;;;;;10.13;3.38;;;;;;;;;;5090080;27;20032;-51
2023/07/05 05:25:47;;;;;;;12.10;4.03;;;;;;;;;;5089732;27;20123;-51
2023/07/05 05:28:13;;;;;;;12.38;3.83;;;;;;;;;;5090362;27;20057;-50
2023/07/05 05:30:40;;;;;;;12.15;3.30;;;;;;;;;;5089895;27;20040;-51
2023/07/05 05:33:07;;;;;;;12.50;3.85;;;;;;;;;;5087969;27;20540;-50
2023/07/05 05:35:34;;;;;;;13.05;4.85;;;;;;;;;;5092697;27;20040;-51
2023/07/05 05:38:01;;;;;;;7.82;2.47;;;;;;;;;;5088246;27;20818;-51
2023/07/05 05:40:27;;;;;;;11.82;4.35;;;;;;;;;;5084436;28;20455;-51
2023/07/05 05:42:53;;;;;;;11.80;4.25;;;;;;;;;;5088208;27;20602;-51
2023/07/05 05:45:19;;;;;;;13.52;3.25;;;;;;;;;;5088657;27;20066;-51
2023/07/05 05:47:45;;;;;;;6.20;2.72;;;;;;;;;;5087497;27;20044;-51
2023/07/05 05:50:11;;;;;;;10.68;2.75;;;;;;;;;;5089006;27;20043;-51
2023/07/05 05:52:37;;;;;;;10.57;3.85;;;;;;;;;;5089264;27;20127;-51
2023/07/05 05:55:04;;;;;;;9.77;3.33;;;;;;;;;;5089978;27;20044;-51
2023/07/05 05:57:30;;;;;;;16.05;4.15;;;;;;;;;;5087308;27;20122;-51
2023/07/05 05:59:56;;;;;;;11.30;3.33;;;;;;;;;;5086758;27;20119;-51
2023/07/05 06:02:22;;;;;;;6.35;2.53;;;;;;;;;;5089030;27;20107;-51
2023/07/05 06:04:48;;;;;;;10.27;2.53;;;;;;;;;;5087716;27;20044;-51
2023/07/05 06:07:14;;;;;;;10.25;3.25;;;;;;;;;;5087920;27;20056;-51
2023/07/05 06:09:44;;;;;;;9.20;3.20;;;;;;;;;;5084449;27;20082;-51
2023/07/05 06:12:10;;;;;;;7.82;2.72;;;;;;;;;;5089238;27;20482;-51
2023/07/05 06:14:36;;;;;;;8.57;2.58;;;;;;;;;;5092199;27;20622;-51
2023/07/05 06:17:02;;;;;;;7.70;2.67;;;;;;;;;;5086201;27;20040;-51
2023/07/05 06:19:28;;;;;;;4.93;2.55;;;;;;;;;;5088589;27;20056;-51
2023/07/05 06:21:54;;;;;;;5.38;1.85;;;;;;;;;;5087293;27;20043;-51
2023/07/05 06:24:20;;;;;;;9.32;2.20;;;;;;;;;;5088165;27;20040;-51
2023/07/05 06:26:46;;;;;;;7.35;3.50;;;;;;;;;;5087073;27;20040;-51
2023/07/05 06:29:12;;;;;;;5.75;2.10;;;;;;;;;;5086291;27;20154;-51
2023/07/05 06:31:38;;;;;;;9.68;2.42;;;;;;;;;;5087569;27;20118;-51
2023/07/05 06:34:04;;;;;;;6.22;2.05;;;;;;;;;;5086544;27;20074;-51
2023/07/05 06:36:30;;;;;;;9.85;2.95;;;;;;;;;;5087611;27;20040;-51
2023/07/05 06:38:57;;;;;;;4.80;2.35;;;;;;;;;;5085468;27;20068;-51
2023/07/05 06:41:24;;;;;;;8.52;2.00;;;;;;;;;;5086947;27;20075;-51
2023/07/05 06:43:50;;;;;;;18.38;3.47;;;;;;;;;;5085128;27;20051;-51
2023/07/05 06:46:16;;;;;;;5.13;2.22;;;;;;;;;;5082732;27;20044;-51
2023/07/05 06:48:45;;;;;;;6.28;2.53;;;;;;;;;;5084575;27;20041;-51
2023/07/05 06:51:11;;;;;;;7.68;2.30;;;;;;;;;;5087368;27;21340;-51
2023/07/05 06:53:38;;;;;;;8.15;2.38;;;;;;;;;;5089878;27;20494;-51
2023/07/05 06:56:05;;;;;;;15.40;3.08;;;;;;;;;;5089240;27;20135;-51
2023/07/05 06:58:31;;;;;;;7.25;2.72;;;;;;;;;;5088471;27;20398;-51
2023/07/05 07:00:57;;;;;;;11.07;2.63;;;;;;;;;;5088410;27;20036;-51
2023/07/05 07:03:23;;;;;;;7.53;3.03;;;;;;;;;;5087761;27;20043;-51
2023/07/05 07:05:53;;;;;;;4.70;2.55;;;;;;;;;;5089171;27;20571;-51
2023/07/05 07:08:20;;;;;;;9.55;2.70;;;;;;;;;;5088083;27;20059;-51
2023/07/05 07:10:46;;;;;;;10.73;2.85;;;;;;;;;;5089517;27;20044;-51
2023/07/05 07:13:13;;;;;;;11.65;2.15;;;;;;;;;;5089707;27;20043;-51
2023/07/05 07:15:39;;;;;;;2.58;1.65;;;;;;;;;;5090869;27;20102;-51
2023/07/05 07:18:05;;;;;;;6.25;2.28;;;;;;;;;;5091533;27;20123;-51
2023/07/05 07:20:31;;;;;;;5.35;2.13;;;;;;;;;;5091541;27;20037;-51
2023/07/05 07:22:57;;;;;;;6.70;2.67;;;;;;;;;;5092191;27;20037;-51
2023/07/05 07:25:23;;;;;;;4.32;1.98;;;;;;;;;;5093492;27;20774;-51
2023/07/05 07:27:49;;;;;;;9.95;2.58;;;;;;;;;;5092883;27;20120;-51
2023/07/05 07:30:16;;;;;;;4.68;2.25;;;;;;;;;;5092207;27;20135;-51
2023/07/05 07:32:44;;;;;;;5.40;2.42;;;;;;;;;;5081271;28;20590;-51
2023/07/05 07:35:10;;;;;;;7.80;2.17;;;;;;;;;;5092549;27;20610;-51
2023/07/05 07:37:36;;;;;;;10.50;3.25;;;;;;;;;;5092543;27;20140;-51
2023/07/05 07:40:04;;;;;;;5.78;2.75;;;;;;;;;;5093670;27;20099;-51
2023/07/05 07:42:30;;;;;;;10.25;2.85;;;;;;;;;;5093833;27;20065;-51
2023/07/05 07:44:57;;;;;;;4.63;1.80;;;;;;;;;;5088772;27;20033;-51
2023/07/05 07:47:23;;;;;;;8.15;2.15;;;;;;;;;;5092807;27;20052;-51
2023/07/05 07:49:49;;;;;;;7.47;2.53;;;;;;;;;;5091648;27;20083;-52
2023/07/05 07:52:16;;;;;;;4.10;1.95;;;;;;;;;;5081428;27;20036;-51
2023/07/05 07:54:43;;;;;;;5.90;1.95;;;;;;;;;;5091701;27;20036;-50
2023/07/05 07:57:09;;;;;;;6.18;2.63;;;;;;;;;;5098414;27;20044;-51
2023/07/05 07:59:40;;;;;;;6.05;2.08;;;;;;;;;;5091760;27;20083;-51
2023/07/05 08:02:06;;;;;;;7.75;2.10;;;;;;;;;;5079330;28;20040;-51
2023/07/05 08:04:32;;;;;;;4.28;2.15;;;;;;;;;;5092214;27;20117;-51
2023/07/05 08:06:58;;;;;;;6.28;2.38;;;;;;;;;;5081090;28;20055;-51
2023/07/05 08:09:28;;;;;;;6.65;3.00;;;;;;;;;;5091191;27;20041;-51
2023/07/05 08:11:57;;;;;;;5.88;2.10;;;;;;;;;;5092061;27;20041;-51
2023/07/05 08:14:23;;;;;;;6.53;2.50;;;;;;;;;;5097220;27;20044;-51
2023/07/05 08:16:50;;;;;;;4.65;2.70;;;;;;;;;;5090423;27;20137;-51
2023/07/05 08:19:16;;;;;;;4.75;2.08;;;;;;;;;;5092089;27;20051;-51
2023/07/05 08:21:43;;;;;;;7.35;2.88;;;;;;;;;;5093161;27;20040;-51
2023/07/05 08:24:10;;;;;;;6.70;1.95;;;;;;;;;;5091918;27;20506;-51
2023/07/05 08:26:36;;;;;;;4.05;2.53;;;;;;;;;;5089550;27;20575;-51
2023/07/05 08:29:03;;;;;;;7.43;3.03;;;;;;;;;;5089469;27;20063;-51
2023/07/05 08:31:29;;;;;;;6.30;2.70;;;;;;;;;;5092038;27;20047;-51
2023/07/05 08:33:55;;;;;;;6.93;2.30;;;;;;;;;;5091425;27;20099;-51
2023/07/05 08:36:41;;;;;;;7.53;2.17;;;;;;;;;;5092171;27;20086;-51
2023/07/05 08:39:08;;;;;;;8.27;2.65;;;;;;;;;;5092410;27;20044;-51
2023/07/05 08:41:46;;;;;;;11.05;2.30;;;;;;;;;;5092062;27;20120;-51
2023/07/05 08:44:15;;;;;;;5.78;3.25;;;;;;;;;;5092156;27;20040;-51
2023/07/05 08:46:41;;;;;;;6.50;2.42;;;;;;;;;;5091179;27;20605;-51
2023/07/05 08:49:10;;;;;;;4.45;1.75;;;;;;;;;;5091412;27;20044;-51
2023/07/05 08:51:36;;;;;;;8.15;2.88;;;;;;;;;;5091910;27;20051;-51
2023/07/05 08:54:04;;;;;;;5.00;2.70;;;;;;;;;;5092157;27;20052;-51
2023/07/05 08:56:36;;;;;;;10.07;3.13;;;;;;;;;;5091895;27;20518;-51
2023/07/05 08:59:21;;;;;;;5.80;2.33;;;;;;;;;;5091901;27;20051;-51
2023/07/05 09:01:50;;;;;;;5.97;2.83;;;;;;;;;;5091230;27;20090;-51
2023/07/05 09:04:25;;;;;;;10.27;2.67;;;;;;;;;;5091289;27;20499;-51
2023/07/05 09:06:56;;;;;;;6.10;2.90;;;;;;;;;;5090849;27;20146;-51
2023/07/05 09:09:28;;;;;;;6.05;1.90;;;;;;;;;;5091736;27;20044;-51
2023/07/05 09:12:00;;;;;;;6.10;2.30;;;;;;;;;;5091531;27;20051;-51
2023/07/05 09:14:40;;;;;;;4.95;2.00;;;;;;;;;;5091373;27;20044;-51
2023/07/05 09:17:20;;;;;;;7.18;2.38;;;;;;;;;;5092127;27;20201;-51
2023/07/05 09:20:06;;;;;;;5.65;2.67;;;;;;;;;;5090550;27;20067;-51
2023/07/05 09:22:36;;;;;;;4.80;1.80;;;;;;;;;;5090677;27;20566;-51
2023/07/05 09:25:03;;;;;;;4.80;2.22;;;;;;;;;;5091656;27;20485;-51
2023/07/05 09:27:32;;;;;;;3.90;2.28;;;;;;;;;;5091479;27;20041;-51
2023/07/05 09:30:06;;;;;;;3.08;2.15;;;;;;;;;;5089715;27;20039;-51
2023/07/05 09:32:34;;;;;;;3.08;1.77;;;;;;;;;;5091246;27;20036;-51
2023/07/05 09:35:01;;;;;;;7.82;1.80;;;;;;;;;;5091417;27;20163;-51
2023/07/05 09:37:30;;;;;;;9.57;2.38;;;;;;;;;;5090145;27;20150;-51
2023/07/05 09:40:11;;;;;;;4.85;1.75;;;;;;;;;;5091454;27;20047;-51
2023/07/05 09:42:41;;;;;;;6.72;1.75;;;;;;;;;;5090891;27;20085;-51
2023/07/05 09:45:11;;;;;;;3.15;1.70;;;;;;;;;;5091085;27;20124;-51
2023/07/05 09:47:37;;;;;;;4.43;2.13;;;;;;;;;;5090417;27;20055;-51
2023/07/05 09:50:10;;;;;;;5.10;1.80;;;;;;;;;;5089305;27;20047;-51
2023/07/05 09:52:36;;;;;;;6.00;2.15;;;;;;;;;;5088183;28;20044;-51
2023/07/05 09:55:03;;;;;;;8.38;1.90;;;;;;;;;;5090388;27;20127;-51
2023/07/05 09:57:29;;;;;;;4.70;3.08;;;;;;;;;;5090803;27;20056;-51
2023/07/05 09:59:55;;;;;;;6.90;2.60;;;;;;;;;;5089835;27;20068;-51
2023/07/05 10:02:23;;;;;;;8.30;2.92;;;;;;;;;;5089651;27;20039;-51
2023/07/05 10:04:53;;;;;;;4.65;1.70;;;;;;;;;;5089663;27;20036;-51
2023/07/05 10:07:27;;;;;;;5.03;2.10;;;;;;;;;;5089426;27;20040;-52
2023/07/05 10:09:56;;;;;;;3.95;1.70;;;;;;;;;;5090327;27;20158;-51
2023/07/05 10:12:24;;;;;;;4.18;1.85;;;;;;;;;;5086836;28;20846;-51
2023/07/05 10:14:56;;;;;;;6.53;2.03;;;;;;;;;;5089779;27;20115;-51
2023/07/05 10:17:23;;;;;;;4.78;1.83;;;;;;;;;;5090508;27;20083;-51
2023/07/05 10:19:51;;;;;;;4.15;2.42;;;;;;;;;;5089605;27;20048;-51
2023/07/05 10:22:27;;;;;;;6.53;2.78;;;;;;;;;;5090435;27;20052;-51
2023/07/05 10:25:15;;;;;;;6.05;2.00;;;;;;;;;;5090955;27;20044;-51
2023/07/05 10:27:43;;;;;;;5.88;2.00;;;;;;;;;;5089150;27;20635;-51
2023/07/05 10:30:14;;;;;;;4.32;1.35;;;;;;;;;;5089381;27;21326;-51
2023/07/05 10:32:46;;;;;;;9.48;2.15;;;;;;;;;;5089629;27;20138;-51
2023/07/05 10:35:25;;;;;;;3.30;1.65;;;;;;;;;;5090566;27;20056;-51
2023/07/05 10:37:52;;;;;;;4.13;2.00;;;;;;;;;;5090086;27;20044;-51
2023/07/05 10:40:19;;;;;;;6.57;2.25;;;;;;;;;;5090821;27;20040;-51
2023/07/05 10:42:54;;;;;;;5.75;1.95;;;;;;;;;;5089325;27;20044;-51
2023/07/05 10:45:21;;;;;;;5.18;1.63;;;;;;;;;;5090751;27;20036;-51
2023/07/05 10:47:52;;;;;;;4.57;1.98;;;;;;;;;;5088321;27;20048;-52
2023/07/05 10:50:24;;;;;;;8.60;2.65;;;;;;;;;;5094651;27;20699;-51
2023/07/05 10:52:50;;;;;;;;;;;;;;;;;;5090458;27;20549;-51
2023/07/05 10:55:19;;;;;;;5.95;1.85;;;;;;;;;;5090667;27;20389;-51
2023/07/05 10:57:52;;;;;;;6.65;2.35;;;;;;;;;;5088052;27;20046;-51
2023/07/05 11:00:28;;;;;;;3.20;1.73;;;;;;;;;;5090544;27;20846;-51
2023/07/05 11:03:11;;;;;;;4.38;1.70;;;;;;;;;;5087197;27;20430;-51
2023/07/05 11:05:42;;;;;;;7.00;2.03;;;;;;;;;;5090051;27;20045;-51
2023/07/05 11:08:34;;;;;;;11.15;3.35;;;;;;;;;;5089670;27;20056;-51
2023/07/05 11:11:00;;;;;;;;;;;;;;;;;;5089860;27;20048;-51
2023/07/05 11:13:28;;;;;;;6.18;2.00;;;;;;;;;;5089925;27;19927;-51
2023/07/05 11:15:54;;;;;;;4.32;2.00;;;;;;;;;;5088651;27;20044;-51
2023/07/05 11:18:21;;;;;;;4.32;1.73;;;;;;;;;;5090096;27;20128;-51
2023/07/05 11:20:47;;;;;;;3.45;1.40;;;;;;;;;;5089689;27;20041;-51
2023/07/05 11:23:33;;;;;;;6.43;1.55;;;;;;;;;;5088163;27;20048;-51
2023/07/05 11:26:00;;;;;;;3.67;1.42;;;;;;;;;;5089897;27;20598;-51
2023/07/05 11:28:37;;;;;;;4.82;1.83;;;;;;;;;;5089260;27;20566;-51
2023/07/05 11:31:04;;;;;;;3.53;2.13;;;;;;;;;;5089175;27;20047;-51
2023/07/05 11:33:30;;;;;;;6.40;2.58;;;;;;;;;;5090382;27;20048;-51
2023/07/05 11:35:57;;;;;;;5.13;1.52;;;;;;;;;;5088413;27;20036;-51
2023/07/05 11:38:40;;;;;;;4.40;1.45;;;;;;;;;;5089415;27;20052;-51
2023/07/05 11:41:26;;;;;;;4.88;1.42;;;;;;;;;;5078365;28;20527;-51
2023/07/05 11:43:55;;;;;;;4.13;2.47;;;;;;;;;;5088086;27;20044;-51
2023/07/05 11:46:44;;;;;;;10.32;1.75;;;;;;;;;;5089325;27;20053;-51
2023/07/05 11:49:27;;;;;;;3.33;1.63;;;;;;;;;;5088195;27;20538;-51
2023/07/05 11:51:56;;;;;;;5.13;1.80;;;;;;;;;;5088985;27;20059;-51
2023/07/05 11:54:26;;;;;;;8.02;2.08;;;;;;;;;;5089182;27;20036;-51
2023/07/05 11:56:54;;;;;;;3.55;1.65;;;;;;;;;;5088427;27;20035;-51
2023/07/05 11:59:22;;;;;;;4.80;2.30;;;;;;;;;;5089760;27;20057;-51
2023/07/05 12:01:48;;;;;;;6.20;2.10;;;;;;;;;;5091458;27;20039;-51
2023/07/05 12:04:18;;;;;;;5.15;1.40;;;;;;;;;;5091487;27;20060;-51
2023/07/05 12:06:45;;;;;;;3.42;1.48;;;;;;;;;;5092238;27;20040;-51
2023/07/05 12:09:15;;;;;;;9.20;2.30;;;;;;;;;;5092180;27;20062;-51
2023/07/05 12:11:41;;;;;;;3.75;1.50;;;;;;;;;;5092088;27;20135;-51
2023/07/05 12:14:12;;;;;;;5.32;1.50;;;;;;;;;;5092500;27;20044;-51
2023/07/05 12:16:38;;;;;;;3.28;1.42;;;;;;;;;;5092877;27;20061;-52
2023/07/05 12:19:06;;;;;;;7.32;2.30;;;;;;;;;;5092337;27;20549;-52
2023/07/05 12:21:33;;;;;;;3.50;1.83;;;;;;;;;;5091036;27;20068;-51
2023/07/05 12:23:59;;;;;;;8.02;1.52;;;;;;;;;;5092192;27;20040;-51
2023/07/05 12:26:34;;;;;;;4.15;1.85;;;;;;;;;;5092082;27;20064;-51
2023/07/05 12:29:03;;;;;;;3.33;1.77;;;;;;;;;;5091897;27;20115;-52
2023/07/05 12:31:29;;;;;;;4.18;2.28;;;;;;;;;;5090809;27;20052;-51
2023/07/05 12:33:56;;;;;;;6.03;2.00;;;;;;;;;;5091037;27;20121;-51
2023/07/05 12:36:22;;;;;;;6.68;1.50;;;;;;;;;;5091650;27;20126;-51
2023/07/05 12:38:50;;;;;;;5.75;1.73;;;;;;;;;;5092005;27;20048;-51
2023/07/05 12:41:18;;;;;;;8.43;2.20;;;;;;;;;;5092157;27;20044;-51
2023/07/05 12:43:44;;;;;;;3.65;1.77;;;;;;;;;;5090990;27;20041;-51
2023/07/05 12:46:14;;;;;;;4.43;1.95;;;;;;;;;;5080435;28;20044;-51
2023/07/05 12:48:41;;;;;;;5.10;2.38;;;;;;;;;;5091134;27;20051;-51
2023/07/05 12:51:07;;;;;;;3.88;1.70;;;;;;;;;;5091876;27;20110;-51
2023/07/05 12:53:33;;;;;;;3.83;1.60;;;;;;;;;;5091236;27;20324;-51
2023/07/05 12:56:03;;;;;;;3.40;1.40;;;;;;;;;;5091932;27;20040;-52
2023/07/05 12:58:30;;;;;;;2.40;1.30;;;;;;;;;;5091593;27;20086;-51
2023/07/05 13:00:57;;;;;;;2.90;2.00;;;;;;;;;;5091861;27;20037;-51
2023/07/05 13:03:25;;;;;;;9.43;2.88;;;;;;;;;;5091280;27;20051;-51
2023/07/05 13:05:52;;;;;;;4.63;1.70;;;;;;;;;;5091737;27;20046;-52
2023/07/05 13:08:18;;;;;;;8.07;1.50;;;;;;;;;;5091031;27;21842;-51
2023/07/05 13:10:44;;;;;;;2.75;1.77;;;;;;;;;;5091203;27;20063;-51
2023/07/05 13:13:29;;;;;;;4.50;2.28;;;;;;;;;;5073790;27;20033;-53
2023/07/05 13:15:57;;;;;;;4.50;2.03;;;;;;;;;;5091576;27;20086;-53
2023/07/05 13:18:26;;;;;;;5.53;2.30;;;;;;;;;;5091124;27;20127;-51
2023/07/05 13:21:07;;;;;;;6.20;2.20;;;;;;;;;;5074188;27;20048;-51
2023/07/05 13:23:33;;;;;;;3.07;1.70;;;;;;;;;;5090498;27;20044;-51
2023/07/05 13:25:59;;;;;;;6.88;3.63;;;;;;;;;;5091017;27;20036;-51
2023/07/05 13:28:30;;;;;;;6.93;2.60;;;;;;;;;;5091265;27;20048;-52
2023/07/05 13:30:59;;;;;;;4.67;1.93;;;;;;;;;;5090583;27;20148;-51
2023/07/05 13:33:26;;;;;;;8.20;2.35;;;;;;;;;;5091963;27;20255;-51
2023/07/05 13:35:52;;;;;;;7.93;1.92;;;;;;;;;;5091027;27;20036;-51
2023/07/05 13:38:19;;;;;;;3.55;1.83;;;;;;;;;;5091101;27;20048;-51
2023/07/05 13:40:58;;;;;;;4.28;2.17;;;;;;;;;;5072795;28;20045;-51
2023/07/05 13:43:24;;;;;;;3.28;1.58;;;;;;;;;;5090616;27;20093;-51
2023/07/05 13:45:50;;;;;;;4.30;2.05;;;;;;;;;;5090890;27;20154;-51
2023/07/05 13:48:16;;;;;;;3.97;1.90;;;;;;;;;;5086209;27;20052;-52
2023/07/05 13:50:42;;;;;;;5.38;2.17;;;;;;;;;;5089678;27;20044;-52
2023/07/05 13:53:17;;;;;;;4.97;2.08;;;;;;;;;;5091959;27;20043;-51
2023/07/05 13:55:43;;;;;;;6.70;2.45;;;;;;;;;;5091562;27;20028;-51
2023/07/05 13:58:11;;;;;;;4.10;1.90;;;;;;;;;;5091058;27;20051;-51
2023/07/05 14:00:38;;;;;;;6.43;2.80;;;;;;;;;;5088570;27;20046;-51
2023/07/05 14:03:06;;;;;;;6.05;2.05;;;;;;;;;;5090559;27;20503;-51
2023/07/05 14:05:32;;;;;;;4.18;1.80;;;;;;;;;;5090287;27;20530;-51
2023/07/05 14:07:59;;;;;;;6.93;4.57;;;;;;;;;;5090769;27;20064;-51
2023/07/05 14:10:26;;;;;;;7.30;2.90;;;;;;;;;;5090912;27;20032;-51
2023/07/05 14:12:52;;;;;;;7.28;3.42;;;;;;;;;;5089739;27;20071;-51
2023/07/05 14:15:25;;;;;;;5.80;2.72;;;;;;;;;;5089140;27;20043;-51
2023/07/05 14:17:51;;;;;;;5.55;1.85;;;;;;;;;;5089143;27;20052;-51
2023/07/05 14:20:17;;;;;;;2.80;1.50;;;;;;;;;;5089244;27;20083;-51
2023/07/05 14:22:44;;;;;;;3.55;1.92;;;;;;;;;;5087198;27;20046;-51
2023/07/05 14:25:16;;;;;;;4.95;2.13;;;;;;;;;;5094506;27;20184;-51
2023/07/05 14:27:42;;;;;;;5.35;2.58;;;;;;;;;;5087419;27;20052;-51
2023/07/05 14:30:08;;;;;;;7.15;2.30;;;;;;;;;;5088250;27;20853;-51
2023/07/05 14:32:34;;;;;;;4.55;2.10;;;;;;;;;;5086222;27;20124;-51
2023/07/05 14:35:01;;;;;;;4.68;1.90;;;;;;;;;;5074077;28;20058;-51
2023/07/05 14:37:29;;;;;;;4.50;1.67;;;;;;;;;;5088900;27;20072;-51
2023/07/05 14:39:55;;;;;;;4.78;1.95;;;;;;;;;;5089954;27;20107;-51
2023/07/05 14:42:22;;;;;;;6.85;1.80;;;;;;;;;;5090462;27;20868;-51
2023/07/05 14:44:48;;;;;;;4.32;1.83;;;;;;;;;;5090355;27;20114;-51